Time;durP1;ratioP1;P1;durP2;ratioP2;P2;SDS_P1;SDS_P2;PMS_P1;PMS_P2;Temp;Humidity;BMP_temperature;BMP_pressure;BME280_temperature;BME280_humidity;BME280_pressure;Samples;Min_cycle;Max_cycle;Signal;HPM_P1;HPM_P2
2021/01/10 00:02:22;;;;;;;82.15;48.97;;;5.30;88.80;;;;;;5034888;28;20032;-52
2021/01/10 00:04:48;;;;;;;85.55;50.45;;;5.30;88.80;;;;;;5034969;28;20473;-53
2021/01/10 00:07:14;;;;;;;86.07;50.50;;;5.20;89.40;;;;;;5034954;28;20036;-53
2021/01/10 00:09:40;;;;;;;83.07;48.67;;;5.20;89.00;;;;;;5016430;28;20033;-53
2021/01/10 00:12:06;;;;;;;81.30;48.05;;;5.20;89.10;;;;;;5034828;28;20112;-53
2021/01/10 00:14:32;;;;;;;73.90;46.47;;;5.20;88.80;;;;;;5035072;28;20108;-53
2021/01/10 00:16:57;;;;;;;88.25;54.35;;;5.20;88.70;;;;;;5034871;28;20440;-53
2021/01/10 00:19:23;;;;;;;85.97;49.72;;;5.30;88.60;;;;;;5034922;28;20117;-53
2021/01/10 00:21:49;;;;;;;99.15;59.58;;;5.20;89.90;;;;;;5034645;28;20095;-53
2021/01/10 00:24:14;;;;;;;96.65;55.67;;;4.90;90.30;;;;;;5034497;28;20038;-52
2021/01/10 00:26:40;;;;;;;93.13;51.13;;;4.60;90.70;;;;;;5041413;28;20029;-53
2021/01/10 00:29:07;;;;;;;92.68;51.88;;;4.40;91.40;;;;;;5017739;28;20042;-53
2021/01/10 00:31:36;;;;;;;89.03;51.22;;;4.40;91.20;;;;;;5088276;28;20052;-54
2021/01/10 00:34:03;;;;;;;87.25;50.85;;;4.50;91.20;;;;;;5094669;28;20059;-53
2021/01/10 00:36:36;;;;;;;82.30;49.20;;;4.40;91.50;;;;;;5094750;28;20031;-53
2021/01/10 00:39:05;;;;;;;87.00;51.72;;;4.80;90.90;;;;;;5081264;28;20032;-53
2021/01/10 00:41:40;;;;;;;86.13;51.33;;;4.70;90.80;;;;;;5074450;28;20032;-52
2021/01/10 00:44:06;;;;;;;92.75;53.83;;;4.40;91.30;;;;;;5074171;28;20549;-53
2021/01/10 00:46:32;;;;;;;84.70;52.03;;;4.40;91.70;;;;;;5074222;28;20464;-52
2021/01/10 00:48:59;;;;;;;88.60;52.92;;;4.50;91.50;;;;;;5074055;28;20492;-53
2021/01/10 00:51:25;;;;;;;86.15;51.35;;;4.30;92.00;;;;;;5081917;28;20026;-53
2021/01/10 00:53:50;;;;;;;84.88;50.50;;;4.20;91.90;;;;;;5094357;28;20028;-53
2021/01/10 00:56:17;;;;;;;84.07;49.75;;;4.40;92.00;;;;;;5094348;28;20016;-54
2021/01/10 00:58:43;;;;;;;78.40;48.53;;;4.50;91.60;;;;;;5094252;28;20044;-52
2021/01/10 01:01:09;;;;;;;76.50;47.80;;;4.40;91.50;;;;;;5093230;28;20077;-53
2021/01/10 01:03:34;;;;;;;89.78;53.42;;;4.50;91.50;;;;;;5010966;28;20959;-53
2021/01/10 01:06:00;;;;;;;91.40;54.55;;;4.50;91.60;;;;;;5074007;28;20483;-52
2021/01/10 01:08:26;;;;;;;83.18;52.45;;;4.70;91.60;;;;;;5073645;28;20032;-53
2021/01/10 01:10:51;;;;;;;82.90;48.85;;;4.70;91.00;;;;;;5073779;28;20400;-53
2021/01/10 01:13:18;;;;;;;85.07;52.83;;;4.90;90.60;;;;;;5038187;28;20040;-53
2021/01/10 01:15:44;;;;;;;80.18;47.40;;;5.00;90.70;;;;;;5073813;28;20036;-54
2021/01/10 01:18:10;;;;;;;80.60;48.50;;;5.10;90.30;;;;;;5073777;28;20520;-52
2021/01/10 01:20:36;;;;;;;77.47;48.70;;;5.20;89.80;;;;;;5073380;28;20099;-52
2021/01/10 01:23:04;;;;;;;83.03;49.80;;;5.20;89.30;;;;;;5038171;28;20178;-52
2021/01/10 01:25:30;;;;;;;77.90;46.78;;;5.30;89.00;;;;;;5083822;28;20470;-54
2021/01/10 01:27:56;;;;;;;76.07;48.08;;;5.30;88.70;;;;;;5093457;28;20032;-54
2021/01/10 01:30:21;;;;;;;71.18;45.15;;;5.20;89.20;;;;;;5093618;28;20067;-53
2021/01/10 01:32:47;;;;;;;77.65;45.80;;;5.20;89.10;;;;;;5093482;28;20528;-52
2021/01/10 01:35:13;;;;;;;73.75;46.30;;;5.30;88.80;;;;;;5093767;28;20597;-54
2021/01/10 01:37:41;;;;;;;76.47;47.05;;;5.30;88.70;;;;;;5093361;28;20024;-52
2021/01/10 01:40:07;;;;;;;66.28;41.30;;;5.30;89.00;;;;;;5093222;28;20032;-54
2021/01/10 01:42:33;;;;;;;68.65;42.72;;;5.30;88.70;;;;;;5093437;28;20113;-52
2021/01/10 01:45:00;;;;;;;69.72;42.60;;;5.30;88.60;;;;;;5093538;28;20069;-52
2021/01/10 01:47:27;;;;;;;70.55;44.80;;;5.30;88.30;;;;;;5093290;28;20042;-52
2021/01/10 01:49:53;;;;;;;71.10;45.60;;;5.30;88.90;;;;;;5093203;28;20081;-52
2021/01/10 01:52:19;;;;;;;65.28;40.42;;;5.40;88.40;;;;;;5093122;28;20028;-53
2021/01/10 01:54:45;;;;;;;65.00;40.75;;;5.50;88.30;;;;;;5093049;28;20031;-54
2021/01/10 01:57:11;;;;;;;66.43;41.08;;;5.50;88.20;;;;;;5093298;28;20028;-53
2021/01/10 01:59:37;;;;;;;63.60;41.65;;;5.50;88.30;;;;;;5093023;28;20027;-53
2021/01/10 02:02:08;;;;;;;64.22;39.42;;;5.50;88.50;;;;;;5093197;28;20032;-52
2021/01/10 02:04:54;;;;;;;65.05;41.00;;;5.40;88.60;;;;;;5092857;28;20123;-53
2021/01/10 02:07:31;;;;;;;69.93;41.22;;;5.50;88.30;;;;;;5093319;28;20027;-52
2021/01/10 02:10:06;;;;;;;67.78;43.50;;;5.40;88.90;;;;;;5075830;28;20028;-52
2021/01/10 02:12:36;;;;;;;72.72;44.40;;;5.20;88.80;;;;;;5092647;28;20544;-53
2021/01/10 02:15:09;;;;;;;77.68;47.20;;;5.00;90.00;;;;;;5092971;28;20051;-53
2021/01/10 02:17:35;;;;;;;81.53;48.42;;;5.10;89.80;;;;;;5040417;28;20082;-53
2021/01/10 02:20:05;;;;;;;78.40;46.83;;;5.20;89.50;;;;;;5092555;28;20028;-52
2021/01/10 02:22:42;;;;;;;76.47;46.92;;;5.20;89.00;;;;;;5092935;28;20486;-52
2021/01/10 02:25:10;;;;;;;83.03;48.10;;;5.10;89.80;;;;;;5092599;28;20028;-53
2021/01/10 02:27:36;;;;;;;73.13;45.67;;;5.00;90.20;;;;;;5092296;28;20066;-53
2021/01/10 02:30:04;;;;;;;76.13;47.03;;;5.00;90.30;;;;;;5092257;28;20091;-53
2021/01/10 02:32:31;;;;;;;70.85;43.30;;;5.00;90.30;;;;;;5040163;28;20058;-53
2021/01/10 02:34:59;;;;;;;77.07;46.05;;;5.00;90.20;;;;;;5092007;28;20027;-53
2021/01/10 02:38:02;;;;;;;73.38;43.88;;;4.80;90.70;;;;;;5092393;28;20031;-54
2021/01/10 02:40:40;;;;;;;67.20;40.67;;;4.50;91.30;;;;;;5092281;28;20081;-53
2021/01/10 02:43:21;;;;;;;66.78;39.42;;;4.10;92.10;;;;;;5092248;28;20036;-54
2021/01/10 02:45:48;;;;;;;66.55;37.95;;;3.80;93.00;;;;;;5092238;28;20460;-53
2021/01/10 02:48:14;;;;;;;66.07;38.50;;;3.70;93.50;;;;;;5092383;28;20119;-54
2021/01/10 02:50:41;;;;;;;68.55;39.80;;;3.60;93.40;;;;;;5092206;28;20060;-53
2021/01/10 02:53:07;;;;;;;66.30;38.15;;;3.50;94.00;;;;;;5092392;28;20028;-53
2021/01/10 02:55:33;;;;;;;63.08;36.72;;;3.40;94.30;;;;;;5093880;28;20433;-52
2021/01/10 02:58:04;;;;;;;66.72;39.25;;;3.40;94.40;;;;;;5041613;28;20036;-53
2021/01/10 03:00:31;;;;;;;58.00;36.25;;;3.40;94.70;;;;;;5093648;28;20028;-52
2021/01/10 03:02:57;;;;;;;64.95;36.92;;;3.50;94.40;;;;;;5086570;28;20087;-53
2021/01/10 03:05:26;;;;;;;66.95;39.67;;;3.40;94.50;;;;;;5073108;28;20086;-53
2021/01/10 03:07:52;;;;;;;67.85;38.33;;;3.70;94.10;;;;;;5073086;28;20028;-54
2021/01/10 03:10:19;;;;;;;65.70;38.30;;;3.90;93.60;;;;;;5072954;28;20488;-53
2021/01/10 03:12:44;;;;;;;63.97;38.50;;;3.80;93.40;;;;;;5072792;28;20477;-52
2021/01/10 03:15:11;;;;;;;57.65;36.75;;;3.70;93.90;;;;;;5073158;28;20033;-53
2021/01/10 03:17:44;;;;;;;62.15;37.13;;;4.00;93.40;;;;;;5073270;28;20107;-52
2021/01/10 03:20:14;;;;;;;68.88;39.17;;;4.20;93.10;;;;;;5082285;28;20031;-52
2021/01/10 03:22:41;;;;;;;62.38;37.33;;;4.20;92.70;;;;;;5088843;28;20028;-53
2021/01/10 03:25:08;;;;;;;73.35;39.35;;;4.10;92.90;;;;;;5061895;28;20043;-52
2021/01/10 03:27:34;;;;;;;67.20;39.92;;;4.00;92.80;;;;;;5097422;28;20698;-52
2021/01/10 03:30:12;;;;;;;59.55;36.72;;;4.00;93.00;;;;;;5058181;28;20041;-53
2021/01/10 03:32:38;;;;;;;60.58;36.95;;;3.90;93.10;;;;;;5038239;28;20124;-52
2021/01/10 03:35:05;;;;;;;58.83;36.00;;;4.20;92.60;;;;;;5056476;28;20114;-52
2021/01/10 03:37:31;;;;;;;59.63;36.15;;;4.20;92.40;;;;;;5056278;28;20061;-53
2021/01/10 03:39:57;;;;;;;62.78;37.28;;;4.30;92.20;;;;;;5057106;28;20061;-52
2021/01/10 03:42:23;;;;;;;60.83;35.70;;;4.30;92.50;;;;;;5056202;28;20391;-52
2021/01/10 03:44:48;;;;;;;57.55;34.22;;;4.40;92.40;;;;;;5056649;28;20036;-52
2021/01/10 03:47:14;;;;;;;55.00;35.58;;;4.60;91.80;;;;;;5056912;28;20062;-53
2021/01/10 03:49:40;;;;;;;55.20;35.97;;;4.80;91.40;;;;;;5056220;28;20483;-54
2021/01/10 03:52:06;;;;;;;68.60;39.97;;;4.80;91.40;;;;;;5064468;28;20060;-52
2021/01/10 03:54:31;;;;;;;58.30;36.78;;;4.80;91.00;;;;;;5068123;28;20021;-53
2021/01/10 03:56:57;;;;;;;61.75;36.58;;;4.80;90.90;;;;;;5070478;28;20033;-53
2021/01/10 03:59:23;;;;;;;58.65;37.10;;;4.80;90.80;;;;;;5056466;28;20032;-53
2021/01/10 04:01:48;;;;;;;57.92;35.55;;;4.80;90.90;;;;;;5054800;28;20032;-53
2021/01/10 04:04:14;;;;;;;60.95;35.20;;;4.80;90.90;;;;;;5032246;28;20072;-53
2021/01/10 04:06:40;;;;;;;52.67;33.22;;;4.80;91.20;;;;;;5056490;28;20428;-53
2021/01/10 04:09:06;;;;;;;57.13;35.97;;;4.80;90.90;;;;;;5056531;28;20527;-53
2021/01/10 04:11:31;;;;;;;76.07;42.13;;;5.00;90.80;;;;;;5056073;28;20029;-54
2021/01/10 04:13:58;;;;;;;74.80;49.45;;;4.90;90.90;;;;;;5076358;28;20155;-53
2021/01/10 04:16:23;;;;;;;61.10;37.47;;;5.00;90.50;;;;;;5057870;28;20036;-55
2021/01/10 04:18:49;;;;;;;57.88;35.17;;;5.00;90.60;;;;;;5060370;28;20037;-53
2021/01/10 04:21:15;;;;;;;60.83;36.10;;;5.00;90.50;;;;;;5056410;28;20056;-54
2021/01/10 04:23:41;;;;;;;58.50;36.88;;;5.00;90.50;;;;;;5033983;28;20130;-53
2021/01/10 04:26:06;;;;;;;57.75;37.53;;;5.00;90.40;;;;;;5034058;28;20076;-53
2021/01/10 04:28:32;;;;;;;61.63;36.22;;;5.10;90.30;;;;;;5033627;28;20045;-53
2021/01/10 04:31:00;;;;;;;65.55;37.60;;;5.00;90.30;;;;;;5033794;28;20057;-53
2021/01/10 04:33:26;;;;;;;61.78;36.40;;;5.00;90.50;;;;;;5033468;28;20056;-53
2021/01/10 04:35:52;;;;;;;56.83;35.42;;;5.00;90.50;;;;;;4999709;28;20481;-53
2021/01/10 04:38:17;;;;;;;60.80;38.15;;;4.80;90.60;;;;;;4984389;28;20060;-53
2021/01/10 04:40:44;;;;;;;59.58;36.50;;;4.60;91.10;;;;;;5016515;28;20038;-53
2021/01/10 04:43:10;;;;;;;64.95;39.30;;;4.80;90.90;;;;;;4999872;28;20413;-52
2021/01/10 04:45:37;;;;;;;62.50;40.20;;;4.90;90.70;;;;;;5032716;28;20029;-52
2021/01/10 04:48:03;;;;;;;62.08;39.05;;;4.90;90.50;;;;;;5033091;28;20037;-54
2021/01/10 04:50:33;;;;;;;55.70;34.67;;;5.00;90.50;;;;;;4984031;28;20129;-54
2021/01/10 04:53:02;;;;;;;62.17;36.78;;;5.00;90.60;;;;;;5033621;28;20022;-53
2021/01/10 04:55:31;;;;;;;60.90;37.97;;;4.90;90.30;;;;;;5051424;28;20037;-53
2021/01/10 04:58:06;;;;;;;55.40;34.50;;;5.00;90.40;;;;;;5065568;28;20061;-54
2021/01/10 05:00:33;;;;;;;53.78;35.42;;;5.10;90.20;;;;;;5064234;28;20021;-55
2021/01/10 05:03:03;;;;;;;56.22;36.00;;;5.30;90.30;;;;;;5062772;28;20169;-55
2021/01/10 05:05:30;;;;;;;53.20;33.55;;;5.30;92.50;;;;;;5054657;28;20135;-54
2021/01/10 05:07:57;;;;;;;54.28;35.33;;;5.20;89.90;;;;;;5055321;28;20032;-53
2021/01/10 05:10:23;;;;;;;53.67;34.78;;;5.20;90.10;;;;;;5055037;28;20528;-51
2021/01/10 05:12:49;;;;;;;53.45;35.40;;;5.20;89.90;;;;;;5054913;28;20025;-51
2021/01/10 05:15:14;;;;;;;57.78;33.95;;;5.20;89.70;;;;;;5055221;28;20033;-52
2021/01/10 05:17:40;;;;;;;57.50;35.42;;;5.30;89.90;;;;;;5055042;28;20028;-52
2021/01/10 05:20:09;;;;;;;55.50;36.03;;;5.40;89.20;;;;;;5055094;28;20029;-51
2021/01/10 05:22:38;;;;;;;57.70;36.17;;;5.20;89.30;;;;;;5054921;28;20079;-52
2021/01/10 05:25:14;;;;;;;51.65;32.88;;;5.20;90.00;;;;;;5054835;28;20039;-52
2021/01/10 05:27:39;;;;;;;58.15;36.15;;;5.20;90.00;;;;;;5036106;28;20124;-51
2021/01/10 05:30:06;;;;;;;56.58;34.22;;;5.10;90.10;;;;;;5052647;28;20182;-51
2021/01/10 05:32:31;;;;;;;61.88;36.30;;;5.20;89.30;;;;;;5053162;28;20353;-51
2021/01/10 05:35:01;;;;;;;56.05;34.92;;;5.20;89.80;;;;;;5054543;28;20028;-51
2021/01/10 05:37:27;;;;;;;59.35;37.35;;;5.20;89.70;;;;;;5054623;28;20025;-52
2021/01/10 05:39:55;;;;;;;58.47;37.60;;;5.30;89.60;;;;;;5054373;28;20033;-52
2021/01/10 05:42:27;;;;;;;56.38;36.10;;;5.20;89.80;;;;;;5055047;28;20098;-51
2021/01/10 05:44:53;;;;;;;65.55;38.92;;;5.20;89.60;;;;;;5054429;28;20040;-51
2021/01/10 05:47:20;;;;;;;61.08;38.95;;;5.10;89.70;;;;;;5054206;28;20033;-51
2021/01/10 05:49:53;;;;;;;61.85;38.13;;;4.80;90.70;;;;;;5035626;28;20438;-52
2021/01/10 05:52:20;;;;;;;65.57;40.50;;;4.80;90.80;;;;;;5042584;28;20480;-51
2021/01/10 05:54:48;;;;;;;64.85;39.92;;;4.80;90.70;;;;;;5074200;28;20096;-52
2021/01/10 05:57:15;;;;;;;62.80;37.85;;;4.80;91.00;;;;;;5039080;28;20472;-52
2021/01/10 05:59:49;;;;;;;66.97;43.40;;;4.80;90.80;;;;;;5057619;28;20457;-51
2021/01/10 06:02:33;;;;;;;63.00;37.78;;;4.90;90.60;;;;;;5053764;28;20062;-51
2021/01/10 06:05:19;;;;;;;57.45;36.15;;;5.10;90.20;;;;;;5030329;28;20049;-51
2021/01/10 06:07:46;;;;;;;60.92;38.97;;;5.30;89.50;;;;;;5030499;28;20036;-53
2021/01/10 06:10:23;;;;;;;59.53;35.65;;;5.30;89.40;;;;;;5030466;28;20076;-51
2021/01/10 06:13:04;;;;;;;61.72;37.65;;;5.20;89.60;;;;;;5030452;28;20516;-51
2021/01/10 06:15:34;;;;;;;64.55;39.20;;;5.20;89.60;;;;;;5030405;28;20037;-51
2021/01/10 06:18:03;;;;;;;61.90;37.28;;;5.00;90.20;;;;;;5030312;28;20644;-51
2021/01/10 06:20:30;;;;;;;60.08;37.05;;;5.10;90.20;;;;;;4997338;28;20042;-51
2021/01/10 06:23:01;;;;;;;61.58;37.88;;;5.20;90.20;;;;;;5030135;28;20025;-51
2021/01/10 06:25:33;;;;;;;60.05;38.22;;;5.30;89.70;;;;;;5031222;28;20121;-53
2021/01/10 06:28:07;;;;;;;60.70;37.05;;;5.40;89.40;;;;;;5031223;28;20466;-51
2021/01/10 06:30:35;;;;;;;59.42;37.33;;;5.30;90.00;;;;;;5031158;28;20509;-52
2021/01/10 06:33:27;;;;;;;63.15;39.03;;;5.20;89.70;;;;;;5031231;28;20076;-52
2021/01/10 06:36:01;;;;;;;63.63;38.65;;;5.00;90.40;;;;;;5008021;28;20053;-51
2021/01/10 06:38:32;;;;;;;69.07;40.08;;;5.20;90.20;;;;;;5053953;28;20112;-52
2021/01/10 06:41:24;;;;;;;72.20;43.15;;;5.10;90.40;;;;;;5053250;28;20057;-51
2021/01/10 06:44:01;;;;;;;69.57;41.22;;;5.30;90.00;;;;;;4991828;28;20054;-52
2021/01/10 06:46:27;;;;;;;64.43;41.95;;;5.30;89.90;;;;;;4986742;28;20490;-51
2021/01/10 06:48:54;;;;;;;67.10;40.45;;;5.20;89.80;;;;;;4992087;28;20457;-51
2021/01/10 06:51:24;;;;;;;69.88;45.42;;;5.30;90.10;;;;;;4991974;28;20027;-52
2021/01/10 06:53:50;;;;;;;66.60;41.97;;;4.90;90.90;;;;;;4991721;28;20379;-51
2021/01/10 06:56:17;;;;;;;66.00;41.30;;;5.00;90.80;;;;;;4991819;28;20098;-51
2021/01/10 06:59:02;;;;;;;66.50;40.58;;;5.00;90.80;;;;;;4975056;28;20096;-51
2021/01/10 07:01:53;;;;;;;66.97;38.60;;;4.40;91.90;;;;;;4969271;28;20077;-51
2021/01/10 07:04:21;;;;;;;65.32;37.20;;;4.00;92.80;;;;;;4942834;29;20122;-51
2021/01/10 07:06:47;;;;;;;64.95;38.10;;;3.80;93.50;;;;;;4943255;29;20035;-52
2021/01/10 07:09:14;;;;;;;62.38;37.80;;;4.00;93.50;;;;;;4941257;29;20045;-51
2021/01/10 07:11:41;;;;;;;63.58;38.20;;;4.10;93.30;;;;;;4942591;29;20031;-52
2021/01/10 07:14:06;;;;;;;63.90;38.75;;;4.20;92.60;;;;;;4943172;29;20048;-52
2021/01/10 07:16:36;;;;;;;64.93;37.33;;;4.50;92.20;;;;;;4941485;29;20039;-51
2021/01/10 07:19:04;;;;;;;66.03;38.78;;;4.70;91.60;;;;;;4942359;29;20039;-51
2021/01/10 07:21:35;;;;;;;64.50;40.40;;;4.90;91.10;;;;;;5005318;28;20037;-52
2021/01/10 07:24:13;;;;;;;65.55;39.78;;;5.00;90.90;;;;;;5019986;28;20069;-51
2021/01/10 07:26:48;;;;;;;67.60;41.33;;;5.10;90.80;;;;;;5022171;28;20034;-51
2021/01/10 07:29:33;;;;;;;73.57;41.92;;;5.00;90.50;;;;;;5018421;28;20040;-51
2021/01/10 07:31:59;;;;;;;71.90;42.47;;;4.70;91.20;;;;;;5021823;28;20512;-52
2021/01/10 07:34:26;;;;;;;75.47;43.78;;;4.80;91.60;;;;;;5019533;28;20041;-52
2021/01/10 07:36:57;;;;;;;78.07;44.85;;;5.10;91.20;;;;;;5021257;28;20033;-52
2021/01/10 07:39:25;;;;;;;75.18;41.97;;;4.70;92.00;;;;;;5018146;28;20048;-51
2021/01/10 07:41:52;;;;;;;72.95;42.75;;;4.50;91.80;;;;;;5048402;28;20082;-52
2021/01/10 07:44:18;;;;;;;65.68;39.55;;;4.20;92.90;;;;;;5061993;28;20064;-52
2021/01/10 07:46:54;;;;;;;68.18;37.65;;;4.30;92.80;;;;;;5059839;28;20056;-51
2021/01/10 07:49:22;;;;;;;69.03;38.38;;;4.00;92.90;;;;;;5065190;28;20534;-51
2021/01/10 07:51:49;;;;;;;72.65;43.00;;;4.00;93.30;;;;;;5072819;28;20028;-51
2021/01/10 07:54:15;;;;;;;66.68;39.17;;;4.00;94.00;;;;;;5071225;28;20029;-53
2021/01/10 07:56:41;;;;;;;64.30;38.97;;;3.90;93.70;;;;;;5060384;28;20025;-51
2021/01/10 07:59:16;;;;;;;64.03;36.53;;;3.80;94.20;;;;;;5060017;28;20028;-51
2021/01/10 08:01:52;;;;;;;60.92;35.95;;;3.70;94.30;;;;;;5058090;28;20051;-52
2021/01/10 08:04:35;;;;;;;58.60;36.20;;;3.70;94.30;;;;;;5043314;28;20462;-52
2021/01/10 08:07:03;;;;;;;55.97;36.28;;;3.80;94.00;;;;;;5058438;28;20040;-51
2021/01/10 08:09:33;;;;;;;60.22;36.92;;;3.80;93.90;;;;;;5059670;28;20047;-52
2021/01/10 08:11:59;;;;;;;57.58;35.08;;;3.70;94.60;;;;;;5065422;28;20419;-51
2021/01/10 08:14:26;;;;;;;83.13;51.15;;;3.60;94.50;;;;;;5073399;28;20094;-51
2021/01/10 08:16:52;;;;;;;66.00;39.15;;;3.80;94.50;;;;;;5076277;28;20051;-51
2021/01/10 08:19:18;;;;;;;169.23;94.38;;;3.80;93.80;;;;;;5075988;28;20032;-51
2021/01/10 08:21:44;;;;;;;172.63;101.25;;;3.80;94.00;;;;;;5050633;28;20069;-52
2021/01/10 08:24:10;;;;;;;67.75;42.42;;;4.00;93.60;;;;;;5043630;28;20427;-52
2021/01/10 08:26:40;;;;;;;69.68;44.83;;;3.90;93.20;;;;;;5042978;28;20457;-52
2021/01/10 08:29:07;;;;;;;334.88;184.38;;;3.90;93.60;;;;;;4991661;28;20096;-48
2021/01/10 08:31:33;;;;;;;94.85;54.55;;;4.20;93.60;;;;;;4961563;28;20058;-49
2021/01/10 08:34:04;;;;;;;115.95;66.28;;;4.50;92.80;;;;;;4994400;28;20104;-52
2021/01/10 08:36:31;;;;;;;166.40;87.57;;;4.70;92.10;;;;;;4994559;28;20042;-51
2021/01/10 08:38:59;;;;;;;66.57;39.80;;;4.60;91.70;;;;;;4994359;28;20043;-52
2021/01/10 08:41:25;;;;;;;163.90;80.30;;;4.40;92.20;;;;;;4991670;28;20526;-51
2021/01/10 08:43:59;;;;;;;84.28;46.78;;;4.40;92.50;;;;;;4994122;28;20055;-52
2021/01/10 08:46:27;;;;;;;111.60;62.97;;;4.30;92.60;;;;;;4994265;28;20034;-52
2021/01/10 08:48:53;;;;;;;284.80;150.93;;;4.80;92.20;;;;;;4994256;28;20049;-51
2021/01/10 08:51:30;;;;;;;214.48;121.55;;;4.90;91.10;;;;;;4993965;28;20030;-51
2021/01/10 08:53:56;;;;;;;284.33;166.82;;;4.80;91.40;;;;;;4980811;28;20415;-55
2021/01/10 08:56:22;;;;;;;110.40;70.15;;;5.00;91.50;;;;;;5012660;28;20038;-55
2021/01/10 08:58:53;;;;;;;123.85;78.90;;;5.30;90.70;;;;;;5012125;28;20030;-54
2021/01/10 09:01:20;;;;;;;46.70;30.90;;;5.30;90.70;;;;;;5061761;28;20021;-53
2021/01/10 09:04:05;;;;;;;82.38;51.20;;;5.20;90.70;;;;;;5057063;28;20029;-55
2021/01/10 09:06:34;;;;;;;50.28;31.02;;;5.20;91.00;;;;;;5020327;28;20033;-53
2021/01/10 09:09:15;;;;;;;50.13;31.52;;;5.10;91.40;;;;;;5055716;28;20392;-52
2021/01/10 09:11:46;;;;;;;55.15;35.05;;;5.10;90.90;;;;;;5055211;28;20112;-52
2021/01/10 09:14:13;;;;;;;62.67;41.45;;;4.80;91.50;;;;;;5055160;28;20036;-52
2021/01/10 09:16:40;;;;;;;59.08;37.92;;;4.70;92.30;;;;;;5055101;28;20705;-54
2021/01/10 09:19:08;;;;;;;61.58;39.50;;;4.60;92.10;;;;;;5055308;28;20472;-53
2021/01/10 09:21:34;;;;;;;59.85;38.67;;;4.50;91.90;;;;;;5054447;28;20037;-53
2021/01/10 09:24:01;;;;;;;62.78;40.30;;;4.30;93.00;;;;;;5054936;28;20037;-52
2021/01/10 09:26:35;;;;;;;62.47;42.70;;;4.60;92.90;;;;;;5019650;28;20047;-52
2021/01/10 09:29:02;;;;;;;57.33;36.00;;;4.30;92.90;;;;;;5054793;28;20028;-55
2021/01/10 09:31:49;;;;;;;59.58;34.42;;;4.30;93.40;;;;;;5087127;28;20590;-54
2021/01/10 09:34:15;;;;;;;58.33;35.78;;;4.10;93.30;;;;;;5095188;28;20027;-53
2021/01/10 09:36:42;;;;;;;56.13;34.15;;;4.00;93.70;;;;;;5094534;28;20361;-55
2021/01/10 09:39:08;;;;;;;55.15;34.85;;;3.90;93.80;;;;;;5059641;28;20062;-53
2021/01/10 09:41:53;;;;;;;58.03;34.03;;;3.90;94.20;;;;;;5076341;28;20036;-52
2021/01/10 09:44:19;;;;;;;53.63;33.67;;;3.90;94.10;;;;;;5094248;28;20032;-54
2021/01/10 09:46:53;;;;;;;50.97;32.78;;;4.00;93.90;;;;;;5093495;28;20028;-52
2021/01/10 09:49:25;;;;;;;49.92;29.85;;;4.00;94.00;;;;;;5093564;28;20036;-55
2021/01/10 09:51:56;;;;;;;49.03;31.23;;;4.00;94.00;;;;;;5093489;28;20115;-55
2021/01/10 09:54:25;;;;;;;47.13;28.55;;;4.10;93.80;;;;;;5093393;28;20090;-53
2021/01/10 09:56:52;;;;;;;46.20;28.35;;;4.30;93.40;;;;;;5093395;28;20032;-52
2021/01/10 09:59:40;;;;;;;46.53;29.40;;;4.10;93.80;;;;;;5093319;28;20042;-53
2021/01/10 10:02:16;;;;;;;51.58;31.30;;;4.20;94.20;;;;;;5093170;28;20085;-55
2021/01/10 10:04:45;;;;;;;46.92;29.33;;;4.10;94.10;;;;;;5093147;28;20046;-53
2021/01/10 10:07:12;;;;;;;55.33;34.95;;;4.10;94.10;;;;;;5093521;28;20433;-55
2021/01/10 10:09:53;;;;;;;50.00;31.70;;;4.30;93.40;;;;;;5093279;28;20498;-54
2021/01/10 10:12:23;;;;;;;45.72;28.08;;;4.30;93.60;;;;;;5093114;28;20024;-54
2021/01/10 10:14:56;;;;;;;48.67;30.23;;;4.20;93.40;;;;;;5089938;28;20024;-54
2021/01/10 10:17:27;;;;;;;57.38;33.25;;;4.20;94.00;;;;;;5093100;28;20106;-52
2021/01/10 10:19:53;;;;;;;150.07;85.55;;;4.30;93.60;;;;;;5092952;28;20499;-53
2021/01/10 10:22:24;;;;;;;54.45;30.65;;;4.60;93.30;;;;;;5092975;28;20039;-54
2021/01/10 10:24:53;;;;;;;53.53;32.55;;;4.30;93.00;;;;;;5057137;28;20044;-54
2021/01/10 10:27:19;;;;;;;50.45;31.58;;;4.10;93.80;;;;;;5092988;28;20028;-52
2021/01/10 10:29:45;;;;;;;55.03;33.88;;;4.10;94.30;;;;;;5074458;28;20047;-54
2021/01/10 10:32:11;;;;;;;69.38;45.03;;;4.20;94.30;;;;;;5092679;28;20112;-52
2021/01/10 10:34:37;;;;;;;68.40;40.78;;;4.50;93.70;;;;;;5092712;28;20107;-55
2021/01/10 10:37:03;;;;;;;77.90;46.88;;;4.50;93.00;;;;;;5092612;28;20513;-54
2021/01/10 10:39:29;;;;;;;75.55;48.63;;;4.40;93.50;;;;;;5092821;28;20016;-52
2021/01/10 10:41:55;;;;;;;76.05;47.83;;;4.60;93.30;;;;;;5092636;28;20024;-53
2021/01/10 10:44:21;;;;;;;77.38;52.53;;;5.00;92.40;;;;;;5092536;28;20036;-54
2021/01/10 10:46:47;;;;;;;89.72;55.55;;;5.10;92.10;;;;;;5056990;28;20028;-52
2021/01/10 10:49:12;;;;;;;94.85;55.58;;;5.20;91.70;;;;;;5092592;28;20028;-55
2021/01/10 10:51:39;;;;;;;93.80;56.65;;;5.20;91.80;;;;;;5092612;28;20066;-54
2021/01/10 10:54:04;;;;;;;82.97;52.65;;;5.10;92.10;;;;;;5092489;28;20028;-54
2021/01/10 10:56:39;;;;;;;85.85;55.17;;;5.20;92.00;;;;;;5092491;28;20039;-54
2021/01/10 10:59:05;;;;;;;85.10;53.33;;;5.40;91.60;;;;;;5092384;28;20036;-53
2021/01/10 11:01:38;;;;;;;83.97;56.35;;;5.50;91.00;;;;;;5092604;28;20028;-55
2021/01/10 11:04:04;;;;;;;116.05;73.10;;;5.60;90.80;;;;;;5092224;28;20479;-54
2021/01/10 11:06:30;;;;;;;86.35;51.92;;;5.70;90.60;;;;;;5092454;28;20130;-56
2021/01/10 11:08:55;;;;;;;82.60;51.65;;;5.30;90.90;;;;;;5056862;28;20551;-53
2021/01/10 11:11:21;;;;;;;78.20;46.72;;;5.20;91.00;;;;;;5092348;28;20043;-54
2021/01/10 11:13:47;;;;;;;99.10;59.63;;;5.10;91.40;;;;;;5092258;28;20043;-55
2021/01/10 11:16:12;;;;;;;102.15;65.97;;;5.10;91.90;;;;;;5092322;28;20238;-55
2021/01/10 11:18:38;;;;;;;91.97;57.78;;;5.20;91.80;;;;;;5092181;28;20032;-54
2021/01/10 11:21:05;;;;;;;66.82;43.92;;;5.40;91.30;;;;;;5091015;28;20036;-55
2021/01/10 11:23:32;;;;;;;71.30;45.30;;;5.40;90.70;;;;;;5080119;28;20040;-53
2021/01/10 11:25:58;;;;;;;75.45;48.33;;;5.50;90.90;;;;;;5083594;28;20535;-55
2021/01/10 11:28:24;;;;;;;63.92;41.83;;;5.60;90.50;;;;;;5083575;28;20135;-55
2021/01/10 11:30:52;;;;;;;59.10;39.95;;;5.30;90.60;;;;;;5071308;28;20048;-55
2021/01/10 11:33:18;;;;;;;57.88;38.80;;;5.20;91.00;;;;;;5071724;28;20518;-55
2021/01/10 11:35:44;;;;;;;50.92;36.85;;;5.40;90.90;;;;;;5071752;28;20062;-55
2021/01/10 11:38:10;;;;;;;49.67;35.33;;;5.60;90.30;;;;;;5071641;28;20119;-53
2021/01/10 11:40:35;;;;;;;54.53;35.75;;;5.70;90.40;;;;;;5071961;28;20114;-54
2021/01/10 11:43:01;;;;;;;48.78;33.17;;;5.50;90.30;;;;;;5071602;28;20071;-53
2021/01/10 11:45:27;;;;;;;47.85;34.97;;;5.30;90.00;;;;;;5074584;28;20058;-53
2021/01/10 11:47:52;;;;;;;59.03;37.60;;;5.10;90.70;;;;;;5056821;28;20492;-54
2021/01/10 11:50:18;;;;;;;65.10;37.83;;;5.10;91.10;;;;;;5023612;28;20404;-53
2021/01/10 11:52:44;;;;;;;64.05;35.92;;;4.80;91.80;;;;;;5091297;28;20035;-53
2021/01/10 11:55:10;;;;;;;47.55;30.75;;;4.60;92.10;;;;;;5092662;28;20037;-52
2021/01/10 11:57:35;;;;;;;46.40;32.72;;;4.50;92.70;;;;;;5024955;28;20047;-56
2021/01/10 12:00:01;;;;;;;46.38;33.22;;;4.90;92.50;;;;;;5095722;28;20532;-55
2021/01/10 12:02:28;;;;;;;54.85;35.33;;;5.20;92.00;;;;;;5059752;28;20491;-54
2021/01/10 12:04:54;;;;;;;49.33;32.40;;;4.90;91.40;;;;;;5095458;28;20062;-54
2021/01/10 12:07:20;;;;;;;43.22;29.40;;;5.10;91.90;;;;;;5095408;28;20479;-53
2021/01/10 12:09:45;;;;;;;45.92;31.08;;;4.90;91.80;;;;;;5095549;28;20488;-56
2021/01/10 12:12:11;;;;;;;46.15;33.97;;;4.70;92.10;;;;;;5095418;28;20365;-51
2021/01/10 12:14:37;;;;;;;45.03;32.22;;;4.50;92.80;;;;;;5095233;28;20036;-52
2021/01/10 12:17:03;;;;;;;50.85;34.25;;;4.60;92.90;;;;;;5095294;28;20179;-51
2021/01/10 12:19:28;;;;;;;55.08;34.10;;;4.60;92.60;;;;;;5059486;28;20044;-52
2021/01/10 12:21:54;;;;;;;56.60;35.15;;;4.50;92.80;;;;;;5095185;28;20025;-51
2021/01/10 12:24:20;;;;;;;48.17;31.73;;;4.40;92.80;;;;;;5095130;28;20040;-53
2021/01/10 12:26:45;;;;;;;49.45;31.92;;;4.40;93.30;;;;;;5095126;28;20544;-51
2021/01/10 12:29:11;;;;;;;51.72;33.17;;;4.30;93.30;;;;;;5095230;28;20376;-51
2021/01/10 12:31:37;;;;;;;49.30;33.42;;;4.50;93.20;;;;;;5094879;28;20085;-51
2021/01/10 12:34:03;;;;;;;43.17;27.75;;;4.40;93.60;;;;;;5094854;28;20044;-52
2021/01/10 12:36:29;;;;;;;43.60;29.13;;;4.40;92.80;;;;;;5052507;28;20048;-52
2021/01/10 12:38:55;;;;;;;50.00;31.20;;;4.30;93.10;;;;;;5052345;28;20059;-52
2021/01/10 12:41:20;;;;;;;44.03;27.98;;;4.20;93.50;;;;;;5019081;28;20045;-52
2021/01/10 12:43:46;;;;;;;42.03;27.08;;;4.10;93.50;;;;;;5052248;28;20526;-52